Time;durP1;ratioP1;P1;durP2;ratioP2;P2;SDS_P1;SDS_P2;PMS_P1;PMS_P2;Temp;Humidity;BMP_temperature;BMP_pressure;BME280_temperature;BME280_humidity;BME280_pressure;Samples;Min_cycle;Max_cycle;Signal;HPM_P1;HPM_P2
2022/06/15 13:49:30;;;;;;;;;;;;;;;31.47;21.99;99699.00;1089502;46;19966;-84
2022/06/15 13:56:24;;;;;;;;;;;;;;;31.67;21.87;99697.94;1087982;54;19923;-83
2022/06/15 13:57:32;;;;;;;;;;;;;;;31.70;21.89;99697.38;1088116;54;19943;-83
2022/06/15 13:58:48;;;;;;;;;;;;;;;31.69;21.78;99690.22;1088455;54;19957;-84
2022/06/15 13:59:54;;;;;;;;;;;;;;;31.82;21.36;99692.25;1088397;54;19942;-83
2022/06/15 14:01:04;;;;;;;;;;;;;;;31.82;21.36;99685.91;1088254;54;19962;-82
2022/06/15 14:02:26;;;;;;;;;;;;;;;31.86;21.08;99689.72;1088318;54;19927;-82
2022/06/15 14:03:40;;;;;;;;;;;;;;;32.02;20.81;99693.13;1088300;54;19950;-82
2022/06/15 14:04:55;;;;;;;;;;;;;;;32.26;20.78;99692.25;1088122;54;19951;-81
2022/06/15 14:06:17;;;;;;;;;;;;;;;32.43;20.72;99687.00;1088255;54;19942;-83
2022/06/15 14:07:27;;;;;;;;;;;;;;;32.78;20.66;99676.50;1088265;54;19943;-82
2022/06/15 14:08:40;;;;;;;;;;;;;;;33.16;20.25;99681.13;1088301;54;19949;-84
2022/06/15 14:09:53;;;;;;;;;;;;;;;33.43;19.84;99687.84;1088427;54;19941;-84
2022/06/15 14:11:05;;;;;;;;;;;;;;;33.79;19.85;99678.00;1088233;54;19949;-86
2022/06/15 14:13:56;;;;;;;;;;;;;;;33.87;18.66;99671.75;1088007;54;20006;-87
2022/06/15 14:18:32;;;;;;;;;;;;;;;34.12;18.20;99673.13;1088073;54;19935;-85
2022/06/15 14:19:36;;;;;;;;;;;;;;;34.76;18.34;99674.16;1088280;54;19935;-83
2022/06/15 14:20:45;;;;;;;;;;;;;;;34.94;17.90;99670.38;1088312;54;19942;-84
2022/06/15 14:22:03;;;;;;;;;;;;;;;34.34;18.09;99675.13;1088264;54;19943;-83
2022/06/15 14:23:08;;;;;;;;;;;;;;;34.81;18.10;99674.81;1088258;54;19942;-85
2022/06/15 14:24:19;;;;;;;;;;;;;;;34.70;17.32;99670.69;1088282;54;19943;-84
2022/06/15 14:25:24;;;;;;;;;;;;;;;34.89;16.81;99673.25;1089361;46;19943;-86
2022/06/15 14:26:29;;;;;;;;;;;;;;;35.29;17.08;99669.69;1088170;54;19966;-85
2022/06/15 14:27:33;;;;;;;;;;;;;;;35.67;16.76;99673.97;1088294;54;19943;-85
2022/06/15 14:28:38;;;;;;;;;;;;;;;35.60;16.19;99677.19;1088302;54;19942;-83
2022/06/15 14:29:45;;;;;;;;;;;;;;;35.71;16.35;99670.22;1088122;54;19969;-83
2022/06/15 14:30:49;;;;;;;;;;;;;;;35.83;15.78;99669.56;1087884;54;20650;-87
2022/06/15 14:31:54;;;;;;;;;;;;;;;36.08;16.30;99661.66;1087917;54;19946;-86
2022/06/15 14:32:57;;;;;;;;;;;;;;;35.73;15.82;99661.53;1088276;54;20249;-86
2022/06/15 14:34:07;;;;;;;;;;;;;;;36.14;15.93;99665.88;1088313;54;19943;-86
2022/06/15 14:35:16;;;;;;;;;;;;;;;35.60;15.79;99661.38;1088190;54;19927;-84
2022/06/15 14:36:26;;;;;;;;;;;;;;;35.55;16.08;99657.91;1088229;54;19927;-85
2022/06/15 14:37:27;;;;;;;;;;;;;;;35.76;15.70;99661.72;1088302;54;19942;-84
2022/06/15 14:38:32;;;;;;;;;;;;;;;35.60;16.15;99668.88;1088556;47;19989;-84
2022/06/15 14:39:38;;;;;;;;;;;;;;;35.81;15.63;99666.28;1088291;54;19938;-85
2022/06/15 14:40:42;;;;;;;;;;;;;;;35.58;15.94;99654.47;1087889;54;19942;-84
2022/06/15 14:41:48;;;;;;;;;;;;;;;35.49;16.01;99653.63;1087771;54;19943;-85
2022/06/15 14:42:58;;;;;;;;;;;;;;;35.72;16.04;99654.34;1088098;54;19942;-86
2022/06/15 14:44:03;;;;;;;;;;;;;;;35.74;15.83;99652.06;1088264;54;19927;-85
2022/06/15 14:45:13;;;;;;;;;;;;;;;35.39;16.08;99661.09;1088235;54;19969;-84
2022/06/15 14:46:18;;;;;;;;;;;;;;;35.34;16.51;99655.69;1088187;54;20006;-83
2022/06/15 14:47:24;;;;;;;;;;;;;;;35.25;16.61;99666.75;1088075;54;19943;-83
2022/06/15 14:48:26;;;;;;;;;;;;;;;35.21;16.54;99663.00;1087860;54;19954;-83
2022/06/15 14:49:32;;;;;;;;;;;;;;;35.40;16.43;99648.03;1087963;54;19955;-84
2022/06/15 14:50:34;;;;;;;;;;;;;;;35.55;16.65;99660.69;1088262;54;19971;-84
2022/06/15 14:51:41;;;;;;;;;;;;;;;35.67;16.39;99662.84;1088190;54;19949;-84
2022/06/15 14:52:42;;;;;;;;;;;;;;;35.57;16.52;99653.66;1088250;54;19927;-85
2022/06/15 14:53:57;;;;;;;;;;;;;;;35.30;16.41;99660.22;1088238;54;19965;-83
2022/06/15 14:55:03;;;;;;;;;;;;;;;35.24;16.71;99656.78;1088028;54;19994;-83
2022/06/15 14:56:06;;;;;;;;;;;;;;;35.29;16.83;99659.44;1087664;54;19942;-85
2022/06/15 14:57:10;;;;;;;;;;;;;;;35.18;17.04;99658.06;1087870;54;19942;-84
2022/06/15 14:58:13;;;;;;;;;;;;;;;35.33;16.95;99667.13;1087887;54;20781;-85
2022/06/15 14:59:19;;;;;;;;;;;;;;;35.30;17.28;99661.06;1087857;54;19953;-86
2022/06/15 15:00:24;;;;;;;;;;;;;;;35.40;17.14;99648.84;1087822;54;19943;-83
2022/06/15 15:01:26;;;;;;;;;;;;;;;35.07;16.87;99659.47;1090122;47;19942;-88
2022/06/15 15:02:39;;;;;;;;;;;;;;;34.61;16.91;99655.94;1087867;54;19949;-85
2022/06/15 15:03:44;;;;;;;;;;;;;;;34.89;17.04;99656.59;1087827;54;19942;-84
2022/06/15 15:04:47;;;;;;;;;;;;;;;35.03;17.21;99655.72;1087806;54;19943;-82
2022/06/15 15:05:51;;;;;;;;;;;;;;;35.11;17.07;99654.94;1087800;54;19965;-83
2022/06/15 15:06:59;;;;;;;;;;;;;;;35.22;17.27;99645.19;1087828;54;20054;-83
2022/06/15 15:08:15;;;;;;;;;;;;;;;35.15;16.96;99647.59;1087862;54;20665;-84
2022/06/15 15:09:19;;;;;;;;;;;;;;;34.89;17.29;99651.03;1087814;54;19965;-83
2022/06/15 15:10:24;;;;;;;;;;;;;;;34.67;17.04;99649.09;1088781;47;19927;-83
2022/06/15 15:11:32;;;;;;;;;;;;;;;34.77;16.87;99653.56;1088192;54;19938;-85
2022/06/15 15:12:36;;;;;;;;;;;;;;;34.68;17.11;99657.09;1088245;54;19949;-82
2022/06/15 15:13:44;;;;;;;;;;;;;;;34.57;16.95;99652.13;1088236;54;19942;-84
2022/06/15 15:14:49;;;;;;;;;;;;;;;34.25;16.65;99660.34;1088290;54;19994;-83
2022/06/15 15:15:54;;;;;;;;;;;;;;;34.27;16.59;99649.78;1088200;54;20002;-83
2022/06/15 15:17:04;;;;;;;;;;;;;;;33.89;16.58;99652.84;1088987;39;20577;-84
2022/06/15 15:18:10;;;;;;;;;;;;;;;33.60;16.72;99659.53;1088192;54;19994;-82
2022/06/15 15:19:16;;;;;;;;;;;;;;;33.54;17.00;99655.22;1088243;54;19927;-83
2022/06/15 15:20:29;;;;;;;;;;;;;;;33.58;16.83;99659.00;1088209;54;19973;-83
2022/06/15 15:21:35;;;;;;;;;;;;;;;33.77;16.48;99655.31;1088564;39;20535;-83
2022/06/15 15:22:52;;;;;;;;;;;;;;;33.73;16.82;99655.91;1088206;54;20003;-83
2022/06/15 15:23:57;;;;;;;;;;;;;;;33.82;16.87;99657.97;1088100;54;19942;-83
2022/06/15 15:25:00;;;;;;;;;;;;;;;33.83;16.75;99652.13;1087898;54;19943;-84
2022/06/15 15:26:04;;;;;;;;;;;;;;;33.45;16.69;99655.13;1087766;54;19966;-84
2022/06/15 15:27:16;;;;;;;;;;;;;;;33.63;17.11;99650.59;1087978;54;19927;-83
2022/06/15 15:35:11;;;;;;;;;;;;;;;32.99;17.78;99648.47;1088143;54;20038;-83
2022/06/15 15:36:14;;;;;;;;;;;;;;;32.91;17.60;99646.41;1088014;54;19943;-84
2022/06/15 15:38:55;;;;;;;;;;;;;;;32.82;18.15;99652.66;1087938;54;19947;-82
2022/06/15 15:39:56;;;;;;;;;;;;;;;32.94;17.94;99649.41;1088247;54;19959;-84
2022/06/15 15:41:02;;;;;;;;;;;;;;;32.90;18.01;99642.00;1088175;54;19943;-83
2022/06/15 15:42:03;;;;;;;;;;;;;;;32.96;18.21;99638.84;1088076;54;19949;-83
2022/06/15 15:43:08;;;;;;;;;;;;;;;33.03;18.13;99637.63;1087825;54;20583;-82
2022/06/15 15:44:14;;;;;;;;;;;;;;;32.96;18.30;99644.38;1087774;54;19943;-84
2022/06/15 15:45:25;;;;;;;;;;;;;;;32.96;18.21;99646.34;1094796;39;20455;-86
2022/06/15 15:46:26;;;;;;;;;;;;;;;32.90;17.92;99636.47;1088120;54;19946;-85
2022/06/15 15:47:31;;;;;;;;;;;;;;;32.79;18.20;99630.31;1091510;47;19942;-84
2022/06/15 15:48:34;;;;;;;;;;;;;;;32.76;17.98;99639.19;1088710;54;19939;-86
2022/06/15 15:49:36;;;;;;;;;;;;;;;32.74;17.78;99633.13;1088699;54;19938;-83
2022/06/15 15:50:41;;;;;;;;;;;;;;;32.54;17.76;99637.06;1088694;54;19930;-84
2022/06/15 15:51:42;;;;;;;;;;;;;;;32.41;17.77;99639.47;1088616;54;19942;-83
2022/06/15 15:52:47;;;;;;;;;;;;;;;32.41;17.96;99642.22;1088600;54;19942;-82
2022/06/15 15:53:51;;;;;;;;;;;;;;;32.48;17.42;99637.16;1088451;54;19965;-82
2022/06/15 15:54:55;;;;;;;;;;;;;;;32.40;17.71;99635.09;1088563;54;19994;-82
2022/06/15 15:55:59;;;;;;;;;;;;;;;32.31;17.38;99634.09;1088160;54;19942;-84
2022/06/15 15:57:02;;;;;;;;;;;;;;;32.17;17.71;99639.53;1088604;54;19965;-83
2022/06/15 15:58:07;;;;;;;;;;;;;;;32.05;17.85;99628.94;1088639;54;19934;-84
2022/06/15 15:59:12;;;;;;;;;;;;;;;32.07;17.73;99629.47;1088588;54;19998;-83
2022/06/15 16:00:19;;;;;;;;;;;;;;;32.28;17.61;99631.94;1088163;54;19938;-84
2022/06/15 16:01:22;;;;;;;;;;;;;;;32.40;17.39;99624.03;1088009;54;19943;-84
2022/06/15 16:02:26;;;;;;;;;;;;;;;32.32;17.65;99633.81;1088516;54;20547;-83
2022/06/15 16:03:30;;;;;;;;;;;;;;;32.28;17.47;99630.00;1088614;54;19927;-84
2022/06/15 16:04:35;;;;;;;;;;;;;;;32.28;17.87;99630.00;1088534;54;19927;-83
2022/06/15 16:05:39;;;;;;;;;;;;;;;32.32;18.05;99628.28;1089887;31;20681;-85
2022/06/15 16:06:41;;;;;;;;;;;;;;;32.43;18.13;99628.94;1088068;54;19943;-82
2022/06/15 16:07:45;;;;;;;;;;;;;;;32.38;18.23;99637.31;1088129;54;20610;-82
2022/06/15 16:08:46;;;;;;;;;;;;;;;32.41;17.83;99638.66;1088168;54;19942;-85
2022/06/15 16:09:55;;;;;;;;;;;;;;;32.10;17.76;99637.16;1088142;54;20093;-83
2022/06/15 16:10:59;;;;;;;;;;;;;;;31.87;17.34;99636.91;1088125;54;19973;-82
2022/06/15 16:12:01;;;;;;;;;;;;;;;31.83;17.33;99638.66;1088165;54;19949;-84
2022/06/15 16:13:06;;;;;;;;;;;;;;;31.72;18.27;99637.13;1088178;54;19943;-84
2022/06/15 16:14:08;;;;;;;;;;;;;;;31.86;18.09;99637.22;1088067;54;19939;-83
2022/06/15 16:15:13;;;;;;;;;;;;;;;31.97;18.37;99637.91;1088060;54;19957;-84
2022/06/15 16:16:14;;;;;;;;;;;;;;;32.07;18.43;99625.88;1091540;46;19939;-87
2022/06/15 16:17:19;;;;;;;;;;;;;;;31.92;18.58;99632.47;1088238;54;20010;-84
2022/06/15 16:18:24;;;;;;;;;;;;;;;31.87;18.68;99636.91;1088196;54;19942;-81
2022/06/15 16:19:25;;;;;;;;;;;;;;;31.70;19.06;99633.84;1088103;54;19943;-83
2022/06/15 16:20:32;;;;;;;;;;;;;;;31.63;19.20;99627.84;1088536;54;19942;-83
2022/06/15 16:21:33;;;;;;;;;;;;;;;31.70;19.23;99633.84;1088450;54;19954;-82
2022/06/15 16:22:38;;;;;;;;;;;;;;;31.70;19.40;99631.09;1088527;54;19947;-82
2022/06/15 16:23:41;;;;;;;;;;;;;;;31.69;19.53;99626.66;1088461;54;19935;-83
2022/06/15 16:24:45;;;;;;;;;;;;;;;31.78;19.12;99632.38;1088491;54;19986;-83
2022/06/15 16:25:49;;;;;;;;;;;;;;;31.87;19.18;99623.09;1088503;54;19942;-83
2022/06/15 16:26:53;;;;;;;;;;;;;;;31.83;19.10;99633.13;1088424;54;19934;-83
2022/06/15 16:27:57;;;;;;;;;;;;;;;31.75;19.59;99631.00;1088572;54;19927;-82
2022/06/15 16:28:59;;;;;;;;;;;;;;;31.73;19.58;99625.78;1088597;54;19946;-82
2022/06/15 16:30:03;;;;;;;;;;;;;;;31.88;19.69;99633.03;1089521;46;19927;-82
2022/06/15 16:31:05;;;;;;;;;;;;;;;31.92;19.53;99632.47;1089089;46;19927;-83
2022/06/15 16:32:09;;;;;;;;;;;;;;;31.81;19.58;99638.13;1088538;54;19960;-82
2022/06/15 16:33:11;;;;;;;;;;;;;;;31.90;19.66;99632.75;1088469;54;19949;-84
2022/06/15 16:34:15;;;;;;;;;;;;;;;32.02;19.76;99632.31;1090393;39;20851;-83
2022/06/15 16:35:18;;;;;;;;;;;;;;;31.96;19.53;99619.66;1088198;54;19989;-82
2022/06/15 16:36:22;;;;;;;;;;;;;;;31.86;19.29;99627.00;1088160;54;19942;-85
2022/06/15 16:37:23;;;;;;;;;;;;;;;31.83;19.30;99627.59;1088349;54;19942;-84
2022/06/15 16:38:27;;;;;;;;;;;;;;;31.74;19.44;99621.91;1088452;54;20570;-85
2022/06/15 16:39:32;;;;;;;;;;;;;;;31.72;19.55;99631.63;1088456;54;19934;-85
2022/06/15 16:40:34;;;;;;;;;;;;;;;31.85;19.77;99624.53;1090912;46;19966;-84
2022/06/15 16:41:40;;;;;;;;;;;;;;;31.96;19.32;99622.44;1088419;54;20031;-81
2022/06/15 16:42:41;;;;;;;;;;;;;;;32.03;19.60;99622.88;1088484;54;19942;-84
2022/06/15 16:43:47;;;;;;;;;;;;;;;32.01;19.80;99622.38;1088445;54;19979;-82
2022/06/15 16:44:49;;;;;;;;;;;;;;;31.98;19.45;99614.69;1088475;54;19930;-83
2022/06/15 16:45:53;;;;;;;;;;;;;;;32.02;19.54;99621.25;1088028;54;19943;-83
2022/06/15 16:46:54;;;;;;;;;;;;;;;31.91;19.86;99622.53;1088878;39;20553;-83
2022/06/15 16:47:58;;;;;;;;;;;;;;;31.70;20.17;99622.78;1088048;54;19995;-83
2022/06/15 16:49:00;;;;;;;;;;;;;;;31.54;20.79;99622.97;1088053;54;19942;-81
2022/06/15 16:50:04;;;;;;;;;;;;;;;31.63;20.91;99622.31;1088022;54;19982;-84
2022/06/15 16:51:07;;;;;;;;;;;;;;;31.77;20.90;99623.25;1087988;54;19950;-85
2022/06/15 16:52:11;;;;;;;;;;;;;;;31.82;20.81;99623.19;1088049;54;19943;-83
2022/06/15 16:53:12;;;;;;;;;;;;;;;31.78;20.55;99626.84;1093108;39;20506;-82
2022/06/15 16:54:16;;;;;;;;;;;;;;;31.88;20.78;99627.50;1088037;54;19943;-83
2022/06/15 16:55:22;;;;;;;;;;;;;;;31.80;20.97;99627.34;1088094;54;19943;-83
2022/06/15 16:56:27;;;;;;;;;;;;;;;31.78;21.01;99622.13;1087844;54;19939;-82
2022/06/15 16:57:34;;;;;;;;;;;;;;;31.88;20.92;99626.72;1087985;54;19950;-84
2022/06/15 16:58:36;;;;;;;;;;;;;;;31.92;20.95;99626.94;1088004;54;19927;-83
2022/06/15 16:59:41;;;;;;;;;;;;;;;31.87;20.86;99617.59;1089213;39;20624;-83
2022/06/15 17:00:42;;;;;;;;;;;;;;;31.76;21.07;99618.84;1088439;54;19943;-82
2022/06/15 17:01:47;;;;;;;;;;;;;;;31.75;21.34;99619.94;1088440;54;19927;-83
2022/06/15 17:02:48;;;;;;;;;;;;;;;31.78;21.40;99619.38;1088494;54;19939;-83
2022/06/15 17:03:52;;;;;;;;;;;;;;;31.74;21.50;99615.56;1088459;54;19986;-83
2022/06/15 17:04:53;;;;;;;;;;;;;;;31.75;21.55;99619.94;1088369;54;19990;-83
2022/06/15 17:05:59;;;;;;;;;;;;;;;31.68;21.78;99616.75;1088435;54;19949;-83
2022/06/15 17:07:06;;;;;;;;;;;;;;;31.76;21.27;99618.03;1091193;39;20879;-82
2022/06/15 17:08:07;;;;;;;;;;;;;;;31.80;21.57;99622.66;1088451;54;19954;-82
2022/06/15 17:09:38;;;;;;;;;;;;;;;31.81;21.11;99627.06;1088476;54;19934;-83
2022/06/15 17:10:53;;;;;;;;;;;;;;;31.69;21.12;99621.97;1088346;54;19938;-85
2022/06/15 17:11:57;;;;;;;;;;;;;;;31.50;21.21;99627.44;1089148;46;19949;-79
2022/06/15 17:13:04;;;;;;;;;;;;;;;31.45;21.39;99619.22;1091082;46;19950;-81
2022/06/15 17:14:08;;;;;;;;;;;;;;;31.38;21.60;99621.50;1088311;54;19942;-80
2022/06/15 17:15:10;;;;;;;;;;;;;;;31.54;21.35;99616.59;1088083;54;19943;-81
2022/06/15 17:16:14;;;;;;;;;;;;;;;31.61;21.48;99616.25;1087961;54;19947;-81
2022/06/15 17:17:18;;;;;;;;;;;;;;;31.53;21.67;99612.19;1088216;54;19942;-81
2022/06/15 17:18:20;;;;;;;;;;;;;;;31.40;21.73;99616.50;1089375;39;20576;-81
2022/06/15 17:19:24;;;;;;;;;;;;;;;31.41;21.49;99618.16;1088435;54;19943;-82
2022/06/15 17:20:25;;;;;;;;;;;;;;;31.45;21.37;99618.38;1088354;54;19938;-82
2022/06/15 17:21:30;;;;;;;;;;;;;;;31.32;21.38;99615.22;1088349;54;20009;-81
2022/06/15 17:22:32;;;;;;;;;;;;;;;31.36;21.12;99612.72;1088397;54;19943;-81
2022/06/15 17:23:37;;;;;;;;;;;;;;;31.28;20.90;99614.16;1088397;54;19949;-81
2022/06/15 17:24:39;;;;;;;;;;;;;;;31.29;20.83;99613.06;1088338;54;19949;-81
2022/06/15 17:25:44;;;;;;;;;;;;;;;31.30;20.57;99622.16;1088021;54;19950;-83
2022/06/15 17:26:50;;;;;;;;;;;;;;;31.30;20.59;99622.16;1089410;39;20499;-81
2022/06/15 17:27:51;;;;;;;;;;;;;;;31.36;20.65;99616.28;1088010;54;19943;-81
2022/06/15 17:28:59;;;;;;;;;;;;;;;31.42;20.76;99614.28;1087962;54;19942;-79
2022/06/15 17:30:01;;;;;;;;;;;;;;;31.42;20.57;99614.28;1087983;54;19972;-82
2022/06/15 17:31:08;;;;;;;;;;;;;;;31.38;20.44;99613.22;1087967;54;19939;-78
2022/06/15 17:32:09;;;;;;;;;;;;;;;31.42;20.46;99615.09;1087890;54;19943;-80
2022/06/15 17:33:13;;;;;;;;;;;;;;;31.36;20.56;99609.94;1087917;54;20002;-79
2022/06/15 17:34:15;;;;;;;;;;;;;;;31.32;20.64;99612.44;1087910;54;19966;-80
2022/06/15 17:35:19;;;;;;;;;;;;;;;31.34;20.45;99617.69;1088009;54;20637;-79
2022/06/15 17:36:21;;;;;;;;;;;;;;;31.25;20.47;99612.81;1087932;54;19965;-79
2022/06/15 17:37:26;;;;;;;;;;;;;;;31.22;20.42;99615.34;1087956;54;19950;-80
2022/06/15 17:38:30;;;;;;;;;;;;;;;31.07;20.96;99621.84;1088066;46;19943;-78
2022/06/15 17:39:32;;;;;;;;;;;;;;;31.19;21.07;99616.75;1088054;54;19942;-79
2022/06/15 17:40:37;;;;;;;;;;;;;;;31.22;20.85;99616.16;1093056;39;20395;-78
2022/06/15 17:41:41;;;;;;;;;;;;;;;31.23;21.25;99617.81;1088335;54;19938;-78
2022/06/15 17:42:45;;;;;;;;;;;;;;;31.01;21.50;99622.97;1088427;54;19978;-78
2022/06/15 17:43:47;;;;;;;;;;;;;;;31.12;21.36;99619.03;1088336;54;19962;-78
2022/06/15 17:44:54;;;;;;;;;;;;;;;31.14;21.27;99619.56;1089158;31;20664;-80
2022/06/15 17:45:56;;;;;;;;;;;;;;;31.11;21.16;99626.50;1088380;54;19973;-79
2022/06/15 17:47:00;;;;;;;;;;;;;;;31.12;21.13;99624.56;1088292;54;19950;-79
2022/06/15 17:48:01;;;;;;;;;;;;;;;31.16;21.34;99610.97;1088404;54;19942;-80
2022/06/15 17:49:05;;;;;;;;;;;;;;;31.19;21.24;99615.94;1088413;54;19927;-80
2022/06/15 17:50:09;;;;;;;;;;;;;;;31.16;21.62;99611.81;1088413;54;19927;-79
2022/06/15 17:51:11;;;;;;;;;;;;;;;31.04;21.69;99619.66;1088321;54;19927;-79
2022/06/15 17:52:17;;;;;;;;;;;;;;;30.91;21.91;99618.41;1088380;54;19926;-80
2022/06/15 17:53:18;;;;;;;;;;;;;;;30.96;21.88;99613.66;1088263;54;19927;-78
2022/06/15 17:55:27;;;;;;;;;;;;;;;31.01;22.20;99618.31;1087985;54;19954;-77
2022/06/15 17:56:30;;;;;;;;;;;;;;;31.02;22.01;99616.34;1088033;54;19943;-79
2022/06/15 17:57:34;;;;;;;;;;;;;;;31.05;21.97;99611.06;1088403;54;19934;-80
2022/06/15 17:58:39;;;;;;;;;;;;;;;31.05;22.28;99610.25;1088809;46;19958;-79
2022/06/15 17:59:43;;;;;;;;;;;;;;;30.98;22.11;99609.78;1099672;46;19927;-86
2022/06/15 18:00:47;;;;;;;;;;;;;;;30.93;22.32;99618.94;1090586;46;19962;-84
2022/06/15 18:01:52;;;;;;;;;;;;;;;30.93;22.68;99613.41;1088690;54;19945;-84
2022/06/15 18:04:01;;;;;;;;;;;;;;;30.88;22.40;99617.06;1088596;54;19942;-86
2022/06/15 18:05:02;;;;;;;;;;;;;;;30.89;22.50;99613.16;1088509;54;19943;-84
2022/06/15 18:06:07;;;;;;;;;;;;;;;30.90;22.21;99614.81;1102118;39;20555;-82
2022/06/15 18:07:08;;;;;;;;;;;;;;;30.89;22.40;99617.88;1088623;54;19954;-82
2022/06/15 18:09:18;;;;;;;;;;;;;;;30.84;22.60;99621.50;1077007;54;20339;31
2022/06/15 18:11:34;;;;;;;;;;;;;;;30.80;22.65;99624.00;1088460;54;19946;-82
2022/06/15 18:12:39;;;;;;;;;;;;;;;30.81;22.86;99622.06;1088291;54;19927;-86
2022/06/15 18:14:49;;;;;;;;;;;;;;;30.69;23.02;99618.88;1088461;54;19931;-86
2022/06/15 18:15:53;;;;;;;;;;;;;;;30.56;23.21;99621.19;1088568;54;20596;-86
2022/06/15 18:20:13;;;;;;;;;;;;;;;30.65;23.04;99615.91;1088515;54;19950;-85
2022/06/15 18:21:14;;;;;;;;;;;;;;;30.64;23.21;99619.75;1088422;54;19965;-86
2022/06/15 18:23:24;;;;;;;;;;;;;;;30.57;23.43;99617.31;1088460;54;19950;-83
2022/06/15 18:24:25;;;;;;;;;;;;;;;30.52;23.64;99617.34;1088526;54;20002;-88
2022/06/15 18:26:32;;;;;;;;;;;;;;;30.53;23.38;99610.72;1088015;54;19943;-88
2022/06/15 18:27:33;;;;;;;;;;;;;;;30.53;23.55;99621.75;1088310;54;19957;-87
2022/06/15 18:28:37;;;;;;;;;;;;;;;30.54;23.51;99617.09;1088151;54;19934;-86
2022/06/15 18:29:38;;;;;;;;;;;;;;;30.50;23.45;99616.81;1088242;54;19949;-88
2022/06/15 18:30:44;;;;;;;;;;;;;;;30.53;23.66;99624.50;1088361;54;19934;-88
2022/06/15 18:35:05;;;;;;;;;;;;;;;30.37;23.90;99607.25;1087638;54;19938;-87
2022/06/15 18:36:07;;;;;;;;;;;;;;;30.32;24.22;99616.38;1088336;54;19926;-85
2022/06/15 18:37:12;;;;;;;;;;;;;;;30.23;24.25;99618.09;1088174;54;19934;-85
2022/06/15 18:40:33;;;;;;;;;;;;;;;30.12;24.72;99622.06;1088222;54;19943;-84
2022/06/15 18:41:34;;;;;;;;;;;;;;;30.08;24.72;99618.22;1087894;54;19943;-83
2022/06/15 18:42:39;;;;;;;;;;;;;;;30.02;24.92;99625.69;1087994;54;19998;-86
2022/06/15 18:48:16;;;;;;;;;;;;;;;29.90;26.03;99617.75;1088235;54;20532;-86
2022/06/15 18:49:18;;;;;;;;;;;;;;;29.81;26.37;99625.75;1088306;54;19946;-86
2022/06/15 18:57:06;;;;;;;;;;;;;;;29.64;26.95;99630.81;1080626;54;19950;31
2022/06/15 18:58:12;;;;;;;;;;;;;;;29.64;27.04;99628.91;1095055;47;19950;31
2022/06/15 19:00:21;;;;;;;;;;;;;;;29.68;27.19;99634.66;1088167;54;19943;-82
2022/06/15 19:01:27;;;;;;;;;;;;;;;29.67;27.05;99633.81;1088239;54;19973;-83
2022/06/15 19:02:31;;;;;;;;;;;;;;;29.69;26.88;99628.84;1088275;54;19939;-87
2022/06/15 19:03:35;;;;;;;;;;;;;;;29.70;26.76;99633.25;1088083;54;19943;-85
2022/06/15 19:04:36;;;;;;;;;;;;;;;29.72;27.06;99627.47;1088127;54;19939;-84
2022/06/15 19:05:41;;;;;;;;;;;;;;;29.67;26.99;99625.56;1089300;47;20594;-84
2022/06/15 19:06:43;;;;;;;;;;;;;;;29.68;26.94;99629.97;1088383;54;19943;-84
2022/06/15 19:07:48;;;;;;;;;;;;;;;29.66;27.04;99634.91;1088319;54;19950;-83
2022/06/15 19:08:52;;;;;;;;;;;;;;;29.65;27.04;99638.81;1088399;54;19994;-85
2022/06/15 19:09:56;;;;;;;;;;;;;;;29.65;26.83;99630.53;1088259;54;19986;-80
2022/06/15 19:10:58;;;;;;;;;;;;;;;29.65;26.86;99636.06;1088224;54;19937;-81
2022/06/15 19:12:02;;;;;;;;;;;;;;;29.66;27.05;99632.16;1088207;54;19942;-81
2022/06/15 19:13:07;;;;;;;;;;;;;;;29.62;26.86;99635.75;1089630;47;19946;-80
2022/06/15 19:14:11;;;;;;;;;;;;;;;29.54;27.14;99646.25;1088212;54;19943;-80
2022/06/15 19:15:15;;;;;;;;;;;;;;;29.49;27.34;99642.69;1088206;54;19943;-80
2022/06/15 19:16:19;;;;;;;;;;;;;;;29.48;27.39;99641.06;1088304;47;19942;-79
2022/06/15 19:17:24;;;;;;;;;;;;;;;29.48;27.36;99641.06;1088641;39;20405;-79
2022/06/15 19:18:28;;;;;;;;;;;;;;;29.45;27.45;99644.38;1088252;54;19942;-80
2022/06/15 19:19:30;;;;;;;;;;;;;;;29.41;27.45;99642.19;1088167;54;19942;-79
2022/06/15 19:20:37;;;;;;;;;;;;;;;29.38;27.92;99647.44;1087860;54;19966;-81
2022/06/15 19:21:41;;;;;;;;;;;;;;;29.33;27.86;99645.50;1089570;39;20574;-79
2022/06/15 19:22:44;;;;;;;;;;;;;;;29.28;27.92;99645.50;1090372;39;20451;-81
2022/06/15 19:23:48;;;;;;;;;;;;;;;29.23;28.28;99642.75;1088514;54;19994;-81
2022/06/15 19:24:50;;;;;;;;;;;;;;;29.21;28.04;99639.44;1094554;31;20673;-79
2022/06/15 19:25:57;;;;;;;;;;;;;;;29.20;28.27;99640.56;1088564;54;19954;-79
2022/06/15 19:26:59;;;;;;;;;;;;;;;29.16;28.33;99643.03;1088533;54;19927;-80
2022/06/15 19:28:03;;;;;;;;;;;;;;;29.14;28.35;99645.28;1088524;54;19942;-79
2022/06/15 19:29:08;;;;;;;;;;;;;;;29.10;28.72;99649.66;1088562;54;19991;-79
2022/06/15 19:30:13;;;;;;;;;;;;;;;29.08;28.64;99644.47;1088518;54;19949;-79
2022/06/15 19:31:16;;;;;;;;;;;;;;;29.07;28.64;99645.56;1088487;54;19953;-79
2022/06/15 19:32:21;;;;;;;;;;;;;;;29.03;28.88;99649.94;1088573;54;19942;-79
2022/06/15 19:33:23;;;;;;;;;;;;;;;29.02;28.65;99655.75;1088977;39;20493;-81
2022/06/15 19:34:27;;;;;;;;;;;;;;;29.03;29.11;99660.16;1088457;54;19942;-80
2022/06/15 19:35:29;;;;;;;;;;;;;;;28.97;29.31;99661.22;1088495;54;19987;-80
2022/06/15 19:36:33;;;;;;;;;;;;;;;28.95;29.49;99656.00;1089479;39;20735;-81
2022/06/15 19:37:34;;;;;;;;;;;;;;;28.93;29.19;99660.97;1088372;54;19942;-79
2022/06/15 19:38:39;;;;;;;;;;;;;;;28.85;30.27;99664.28;1088095;54;19943;-80
2022/06/15 19:39:41;;;;;;;;;;;;;;;28.83;30.01;99663.72;1089114;39;20598;-83
2022/06/15 19:40:45;;;;;;;;;;;;;;;28.79;29.82;99658.78;1088516;54;19950;-81
2022/06/15 19:41:47;;;;;;;;;;;;;;;28.78;29.63;99662.63;1088449;54;19935;-82
2022/06/15 19:42:52;;;;;;;;;;;;;;;28.76;29.88;99662.09;1088529;54;19946;-79
2022/06/15 19:43:53;;;;;;;;;;;;;;;28.74;29.76;99661.53;1088542;54;19942;-79
2022/06/15 19:45:01;;;;;;;;;;;;;;;28.72;30.29;99662.91;1091509;39;20481;-79
2022/06/15 19:46:03;;;;;;;;;;;;;;;28.70;29.99;99662.31;1092580;39;20407;-82
2022/06/15 19:47:07;;;;;;;;;;;;;;;28.65;30.44;99663.16;1088399;54;19957;-82
2022/06/15 19:48:10;;;;;;;;;;;;;;;28.61;30.45;99664.81;1088521;54;19946;-82
2022/06/15 19:49:14;;;;;;;;;;;;;;;28.58;30.44;99665.34;1088485;54;19942;-79
2022/06/15 19:50:16;;;;;;;;;;;;;;;28.54;30.41;99673.31;1088495;54;20035;-81
2022/06/15 19:51:23;;;;;;;;;;;;;;;28.52;30.63;99670.00;1088473;54;19943;-81
2022/06/15 19:52:24;;;;;;;;;;;;;;;28.49;30.55;99668.66;1088525;54;19942;-82
2022/06/15 19:53:28;;;;;;;;;;;;;;;28.46;31.03;99666.44;1088690;46;19949;-82
2022/06/15 19:54:33;;;;;;;;;;;;;;;28.41;31.04;99671.94;1088354;54;19943;-81
2022/06/15 19:55:36;;;;;;;;;;;;;;;28.36;31.13;99671.91;1088057;54;19950;-82
2022/06/15 19:56:40;;;;;;;;;;;;;;;28.26;31.60;99671.88;1088040;54;20187;-82
2022/06/15 19:57:44;;;;;;;;;;;;;;;28.20;31.83;99671.06;1088389;54;19938;-81
2022/06/15 19:58:49;;;;;;;;;;;;;;;28.16;31.94;99662.53;1088454;54;19949;-82
2022/06/15 19:59:51;;;;;;;;;;;;;;;28.11;32.44;99672.69;1089251;39;20872;-82
2022/06/15 20:00:58;;;;;;;;;;;;;;;28.05;32.56;99679.22;1088481;54;19942;-82
2022/06/15 20:01:59;;;;;;;;;;;;;;;28.02;32.93;99683.34;1088397;54;19942;-81
2022/06/15 20:03:03;;;;;;;;;;;;;;;28.01;32.29;99674.28;1088492;54;19939;-80
2022/06/15 20:04:05;;;;;;;;;;;;;;;27.99;32.31;99678.38;1089414;46;19942;-78
2022/06/15 20:05:11;;;;;;;;;;;;;;;27.94;32.89;99681.13;1088486;54;19935;-79
2022/06/15 20:06:13;;;;;;;;;;;;;;;27.89;32.48;99673.69;1088507;54;19943;-79
2022/06/15 20:07:18;;;;;;;;;;;;;;;27.84;33.20;99682.75;1088403;54;20531;-79
2022/06/15 20:08:22;;;;;;;;;;;;;;;27.80;32.90;99681.63;1088450;54;19943;-78
2022/06/15 20:09:23;;;;;;;;;;;;;;;27.73;33.52;99681.03;1088441;54;19927;-81
2022/06/15 20:10:28;;;;;;;;;;;;;;;27.70;33.23;99679.66;1088436;54;19946;-81
2022/06/15 20:11:32;;;;;;;;;;;;;;;27.63;34.11;99681.81;1088402;54;19939;-80
2022/06/15 20:12:34;;;;;;;;;;;;;;;27.53;34.59;99677.09;1088483;46;19942;-80
2022/06/15 20:13:38;;;;;;;;;;;;;;;27.45;34.86;99682.25;1088053;54;19954;-80
2022/06/15 20:14:42;;;;;;;;;;;;;;;27.39;35.10;99684.97;1088050;54;19949;-79